createdAt,value
2023-03-17T00:01:54.281Z,89.80
2023-03-17T00:04:24.152Z,89.50
2023-03-17T00:06:51.657Z,89.30
2023-03-17T00:09:20.094Z,89.50
2023-03-17T00:11:47.604Z,88.40
2023-03-17T00:14:14.562Z,88.40
2023-03-17T00:16:43.694Z,88.80
2023-03-17T00:19:16.479Z,88.30
2023-03-17T00:21:43.526Z,88.70
2023-03-17T00:24:15.005Z,88.20
2023-03-17T00:26:43.195Z,87.80
2023-03-17T00:29:10.023Z,87.40
2023-03-17T00:31:38.041Z,87.70
2023-03-17T00:34:05.665Z,87.30
2023-03-17T00:36:34.229Z,87.90
2023-03-17T00:39:01.419Z,88.50
2023-03-17T00:41:29.443Z,88.50
2023-03-17T00:43:57.135Z,88.70
2023-03-17T00:46:35.534Z,88.50
2023-03-17T00:49:05.271Z,88.60
2023-03-17T00:51:32.158Z,88.40
2023-03-17T00:53:58.737Z,88.70
2023-03-17T00:56:25.383Z,88.90
2023-03-17T00:58:52.147Z,88.90
2023-03-17T01:01:18.829Z,89.00
2023-03-17T01:03:45.847Z,89.20
2023-03-17T01:06:13.707Z,89.50
2023-03-17T01:08:41.344Z,90.00
2023-03-17T01:11:18.721Z,90.10
2023-03-17T01:13:46.723Z,90.50
2023-03-17T01:16:14.243Z,90.60
2023-03-17T01:18:41.249Z,91.10
2023-03-17T01:21:08.358Z,91.40
2023-03-17T01:23:35.181Z,91.50
2023-03-17T01:26:01.832Z,91.60
2023-03-17T01:28:28.886Z,91.60
2023-03-17T01:30:56.668Z,91.70
2023-03-17T01:33:23.345Z,92.00
2023-03-17T01:35:50.838Z,92.10
2023-03-17T01:38:17.966Z,91.90
2023-03-17T01:40:50.018Z,92.20
2023-03-17T01:43:20.120Z,92.60
2023-03-17T01:46:23.023Z,92.70
2023-03-17T01:49:05.916Z,92.70
2023-03-17T01:52:00.893Z,92.90
2023-03-17T01:54:45.968Z,92.90
2023-03-17T01:57:23.144Z,92.90
2023-03-17T01:59:54.326Z,93.00
2023-03-17T02:02:25.821Z,93.10
2023-03-17T02:04:52.763Z,92.60
2023-03-17T02:07:22.102Z,92.60
2023-03-17T02:09:49.485Z,92.40
2023-03-17T02:12:16.108Z,92.20
2023-03-17T02:14:44.017Z,92.30
2023-03-17T02:17:12.784Z,92.40
2023-03-17T02:19:39.424Z,92.40
2023-03-17T02:22:06.411Z,92.60
2023-03-17T02:24:40.432Z,92.40
2023-03-17T02:27:16.193Z,92.40
2023-03-17T02:29:46.121Z,92.50
2023-03-17T02:32:15.183Z,92.10
2023-03-17T02:34:41.912Z,92.00
2023-03-17T02:37:08.592Z,91.80
2023-03-17T02:39:35.246Z,92.10
2023-03-17T02:42:01.920Z,91.80
2023-03-17T02:44:28.561Z,91.90
2023-03-17T02:46:55.222Z,91.90
2023-03-17T02:49:22.778Z,92.00
2023-03-17T02:51:49.568Z,91.90
2023-03-17T02:54:16.400Z,92.00
2023-03-17T02:56:43.050Z,92.50
2023-03-17T02:59:09.829Z,92.90
2023-03-17T03:01:36.829Z,92.80
2023-03-17T03:04:07.051Z,93.30
2023-03-17T03:06:33.806Z,93.50
2023-03-17T03:09:00.437Z,93.70
2023-03-17T03:11:27.311Z,94.40
2023-03-17T03:13:54.185Z,94.50
2023-03-17T03:16:21.062Z,94.30
2023-03-17T03:18:48.040Z,94.20
2023-03-17T03:21:15.347Z,94.40
2023-03-17T03:23:43.186Z,94.40
2023-03-17T03:26:09.862Z,94.10
2023-03-17T03:28:36.527Z,94.10
2023-03-17T03:31:03.376Z,93.90
2023-03-17T03:33:30.011Z,93.90
2023-03-17T03:35:57.020Z,93.90
2023-03-17T03:38:23.692Z,94.00
2023-03-17T03:40:50.333Z,93.70
2023-03-17T03:43:23.354Z,94.20
2023-03-17T03:45:51.618Z,94.10
2023-03-17T03:48:18.929Z,94.20
2023-03-17T03:50:45.916Z,94.30
2023-03-17T03:53:12.731Z,94.40
2023-03-17T03:55:39.344Z,94.60
2023-03-17T03:58:06.651Z,94.50
2023-03-17T04:00:33.403Z,94.10
2023-03-17T04:03:01.341Z,94.00
2023-03-17T04:05:28.161Z,93.70
2023-03-17T04:07:54.837Z,93.00
2023-03-17T04:10:23.063Z,92.90
2023-03-17T04:12:49.700Z,92.70
2023-03-17T04:15:18.374Z,93.20
2023-03-17T04:17:45.193Z,93.50
2023-03-17T04:20:13.155Z,93.80
2023-03-17T04:22:41.747Z,93.90
2023-03-17T04:25:10.096Z,94.10
2023-03-17T04:27:37.412Z,94.40
2023-03-17T04:30:04.889Z,94.60
2023-03-17T04:32:32.026Z,94.90
2023-03-17T04:37:25.802Z,95.30
2023-03-17T04:39:53.332Z,95.40
2023-03-17T04:42:21.306Z,95.70
2023-03-17T04:44:48.249Z,96.20
2023-03-17T04:47:15.050Z,96.40
2023-03-17T04:49:41.732Z,96.90
2023-03-17T04:52:08.546Z,97.30
2023-03-17T04:54:36.347Z,97.10
2023-03-17T04:57:04.020Z,97.40
2023-03-17T04:59:30.844Z,98.10
2023-03-17T05:01:57.500Z,98.40
2023-03-17T05:04:31.564Z,98.40
2023-03-17T05:07:00.407Z,98.40
2023-03-17T05:09:28.614Z,98.70
2023-03-17T05:11:55.841Z,98.90
2023-03-17T05:14:22.573Z,99.10
2023-03-17T05:16:50.667Z,99.00
2023-03-17T05:19:18.155Z,99.10
2023-03-17T05:21:44.861Z,98.80
2023-03-17T05:24:12.006Z,98.70
2023-03-17T05:26:40.031Z,98.80
2023-03-17T05:29:07.124Z,98.70
2023-03-17T05:31:33.860Z,99.00
2023-03-17T05:34:00.515Z,99.20
2023-03-17T05:36:27.170Z,99.10
2023-03-17T05:38:54.122Z,99.10
2023-03-17T05:41:20.915Z,99.10
2023-03-17T05:43:47.664Z,99.10
2023-03-17T05:46:14.573Z,99.20
2023-03-17T05:48:41.883Z,99.30
2023-03-17T05:51:08.541Z,99.20
2023-03-17T05:53:38.492Z,99.10
2023-03-17T05:56:06.474Z,99.40
2023-03-17T05:58:33.216Z,99.30
2023-03-17T06:01:00.123Z,99.20
2023-03-17T06:03:26.854Z,99.30
2023-03-17T06:05:53.571Z,99.30
2023-03-17T06:08:20.447Z,99.40
2023-03-17T06:10:47.561Z,99.30
2023-03-17T06:13:14.427Z,99.30
2023-03-17T06:15:43.018Z,99.20
2023-03-17T06:18:09.766Z,99.20
2023-03-17T06:20:36.747Z,98.90
2023-03-17T06:23:05.780Z,98.80
2023-03-17T06:25:34.884Z,98.60
2023-03-17T06:28:06.267Z,98.50
2023-03-17T06:30:34.737Z,98.30
2023-03-17T06:33:02.418Z,97.90
2023-03-17T06:35:30.236Z,97.50
2023-03-17T06:37:57.031Z,97.00
2023-03-17T06:40:23.794Z,96.90
2023-03-17T06:42:51.050Z,96.40
2023-03-17T06:45:18.270Z,95.70
2023-03-17T06:47:45.058Z,95.40
2023-03-17T06:50:12.292Z,94.00
2023-03-17T06:52:39.759Z,92.70
2023-03-17T06:55:08.496Z,92.40
2023-03-17T06:57:35.701Z,92.20
2023-03-17T07:00:02.388Z,91.40
2023-03-17T07:02:29.724Z,90.00
2023-03-17T07:04:58.145Z,88.70
2023-03-17T07:07:25.132Z,86.00
2023-03-17T07:09:52.686Z,84.70
2023-03-17T07:12:20.077Z,85.10
2023-03-17T07:14:46.762Z,82.40
2023-03-17T07:17:14.561Z,80.00
2023-03-17T07:19:42.387Z,78.40
2023-03-17T07:22:11.834Z,72.40
2023-03-17T07:24:38.630Z,68.30
2023-03-17T07:27:05.307Z,66.50
2023-03-17T07:29:33.928Z,64.30
2023-03-17T07:32:01.397Z,61.60
2023-03-17T07:34:28.236Z,59.10
2023-03-17T07:36:55.493Z,59.10
2023-03-17T07:39:22.220Z,58.10
2023-03-17T07:41:52.840Z,57.90
2023-03-17T07:44:19.761Z,56.80
2023-03-17T07:46:46.706Z,55.40
2023-03-17T07:49:13.936Z,56.40
2023-03-17T07:51:43.280Z,56.10
2023-03-17T07:54:14.844Z,57.60
2023-03-17T07:56:42.370Z,58.50
2023-03-17T07:59:09.091Z,59.00
2023-03-17T08:01:35.960Z,59.80
2023-03-17T08:04:04.864Z,59.80
2023-03-17T08:06:32.581Z,59.50
2023-03-17T08:08:59.298Z,58.10
2023-03-17T08:11:28.310Z,57.60
2023-03-17T08:13:56.093Z,57.70
2023-03-17T08:16:23.032Z,57.80
2023-03-17T08:18:49.897Z,58.20
2023-03-17T08:21:16.720Z,55.80
2023-03-17T08:23:43.688Z,55.90
2023-03-17T08:26:10.411Z,56.10
2023-03-17T08:28:37.383Z,58.10
2023-03-17T08:31:18.928Z,58.60
2023-03-17T08:33:48.426Z,59.30
2023-03-17T08:36:16.381Z,60.50
2023-03-17T08:38:44.800Z,58.10
2023-03-17T08:41:15.241Z,57.50
2023-03-17T08:43:43.857Z,57.60
2023-03-17T08:46:25.932Z,57.50
2023-03-17T08:48:54.962Z,57.30
2023-03-17T08:51:24.596Z,59.00
2023-03-17T08:53:52.977Z,58.10
2023-03-17T08:56:19.913Z,58.40
2023-03-17T08:58:47.583Z,58.40
2023-03-17T09:01:15.250Z,57.60
2023-03-17T09:03:42.597Z,57.30
2023-03-17T09:06:12.251Z,56.40
2023-03-17T09:08:44.574Z,55.80
2023-03-17T09:11:14.715Z,54.40
2023-03-17T09:13:41.569Z,52.50
2023-03-17T09:16:08.862Z,50.60
2023-03-17T09:18:35.708Z,51.00
2023-03-17T09:21:05.771Z,51.50
2023-03-17T09:23:33.536Z,52.30
2023-03-17T09:26:00.790Z,53.20
2023-03-17T09:28:27.684Z,54.70
2023-03-17T09:30:59.272Z,53.10
2023-03-17T09:33:25.923Z,51.70
2023-03-17T09:35:54.180Z,51.80
2023-03-17T09:38:22.446Z,52.10
2023-03-17T09:41:13.524Z,51.10
2023-03-17T09:43:52.782Z,50.70
2023-03-17T09:46:38.505Z,51.50
2023-03-17T09:49:19.365Z,50.10
2023-03-17T09:51:47.171Z,51.90
2023-03-17T09:54:26.583Z,51.90
2023-03-17T09:57:01.749Z,52.10
2023-03-17T09:59:30.202Z,53.60
2023-03-17T10:01:57.842Z,53.10
2023-03-17T10:04:25.158Z,53.20
2023-03-17T10:07:01.126Z,53.20
2023-03-17T10:09:32.036Z,51.60
2023-03-17T10:12:12.918Z,50.70
2023-03-17T10:14:54.621Z,50.90
2023-03-17T10:17:26.105Z,50.70
2023-03-17T10:20:08.573Z,50.00
2023-03-17T10:22:59.345Z,49.90
2023-03-17T10:25:31.999Z,51.00
2023-03-17T10:28:28.838Z,51.90
2023-03-17T10:31:18.247Z,53.00
2023-03-17T10:33:49.626Z,52.80
2023-03-17T10:36:17.987Z,52.60
2023-03-17T10:38:52.569Z,53.40
2023-03-17T10:41:19.776Z,53.90
2023-03-17T10:43:50.636Z,55.00
2023-03-17T10:46:25.876Z,54.20
2023-03-17T10:49:07.591Z,54.30
2023-03-17T10:51:37.062Z,55.80
2023-03-17T10:54:10.563Z,53.50
2023-03-17T10:56:42.149Z,52.90
2023-03-17T10:59:19.548Z,52.40
2023-03-17T11:01:57.274Z,52.90
2023-03-17T11:04:37.630Z,52.60
2023-03-17T11:07:15.400Z,53.80
2023-03-17T11:09:42.362Z,52.60
2023-03-17T11:12:34.206Z,53.40
2023-03-17T11:15:03.867Z,52.50
2023-03-17T11:17:49.836Z,52.30
2023-03-17T11:20:26.325Z,50.80
2023-03-17T11:23:24.152Z,51.80
2023-03-17T11:26:22.762Z,51.00
2023-03-17T11:29:01.472Z,51.60
2023-03-17T11:31:37.859Z,49.70
2023-03-17T11:34:13.961Z,48.60
2023-03-17T11:36:48.405Z,50.50
2023-03-17T11:39:21.890Z,48.80
2023-03-17T11:42:24.311Z,49.60
2023-03-17T11:45:10.835Z,49.50
2023-03-17T11:48:02.865Z,50.90
2023-03-17T11:50:37.146Z,51.40
2023-03-17T11:53:07.403Z,51.30
2023-03-17T11:55:37.856Z,52.60
2023-03-17T11:58:38.677Z,52.60
2023-03-17T12:01:09.821Z,52.10
2023-03-17T12:03:50.648Z,52.10
2023-03-17T12:06:36.151Z,52.30
2023-03-17T12:09:52.877Z,52.60
2023-03-17T12:12:27.066Z,52.70
2023-03-17T12:14:56.961Z,52.60
2023-03-17T12:18:07.989Z,51.60
2023-03-17T12:20:57.711Z,52.40
2023-03-17T12:23:58.854Z,52.00
2023-03-17T12:26:41.556Z,52.50
2023-03-17T12:29:17.906Z,50.70
2023-03-17T12:31:52.007Z,50.60
2023-03-17T12:34:24.091Z,50.50
2023-03-17T12:36:51.486Z,50.10
2023-03-17T12:39:33.069Z,49.40
2023-03-17T12:42:10.958Z,48.60
2023-03-17T12:44:50.185Z,48.60
2023-03-17T12:47:49.713Z,48.50
2023-03-17T12:50:31.712Z,48.50
2023-03-17T12:53:26.570Z,49.40
2023-03-17T12:55:56.807Z,50.30
2023-03-17T12:58:39.505Z,50.60
2023-03-17T13:01:19.825Z,50.20
2023-03-17T13:04:12.725Z,51.00
2023-03-17T13:06:55.456Z,50.10
2023-03-17T13:09:31.887Z,50.90
2023-03-17T13:12:01.082Z,52.80
2023-03-17T13:14:42.638Z,51.20
2023-03-17T13:17:21.670Z,53.00
2023-03-17T13:20:12.774Z,52.20
2023-03-17T13:22:59.735Z,52.50
2023-03-17T13:25:35.510Z,53.00
2023-03-17T13:28:14.921Z,53.30
2023-03-17T13:30:55.941Z,54.20
2023-03-17T13:33:31.185Z,53.90
2023-03-17T13:36:14.310Z,55.30
2023-03-17T13:38:48.633Z,54.30
2023-03-17T13:41:35.697Z,55.20
2023-03-17T13:44:30.894Z,54.70
2023-03-17T13:47:18.520Z,55.00
2023-03-17T13:49:59.624Z,54.90
2023-03-17T13:52:46.468Z,54.60
2023-03-17T13:55:23.397Z,55.30
2023-03-17T13:58:17.896Z,55.30
2023-03-17T14:00:48.909Z,54.70
2023-03-17T14:03:22.359Z,55.00
2023-03-17T14:05:53.298Z,55.20
2023-03-17T14:08:31.758Z,55.40
2023-03-17T14:11:01.612Z,55.30
2023-03-17T14:13:41.370Z,55.60
2023-03-17T14:16:21.274Z,55.90
2023-03-17T14:18:51.710Z,56.10
2023-03-17T14:21:35.215Z,56.20
2023-03-17T14:24:14.570Z,56.20
2023-03-17T14:26:41.494Z,56.20
2023-03-17T14:29:16.069Z,56.60
2023-03-17T14:31:48.056Z,56.80
2023-03-17T14:34:16.028Z,56.70
2023-03-17T14:36:43.296Z,57.30
2023-03-17T14:39:23.006Z,57.30
2023-03-17T14:42:01.672Z,57.00
2023-03-17T14:44:35.689Z,56.90
2023-03-17T14:47:04.331Z,57.60
2023-03-17T14:49:33.193Z,57.70
2023-03-17T14:52:00.087Z,58.30
2023-03-17T14:54:35.997Z,58.60
2023-03-17T14:57:07.047Z,58.10
2023-03-17T14:59:54.873Z,58.90
2023-03-17T15:02:34.363Z,58.30
2023-03-17T15:05:22.138Z,58.10
2023-03-17T15:07:48.883Z,57.70
2023-03-17T15:10:18.515Z,57.70
2023-03-17T15:12:49.208Z,57.60
2023-03-17T15:15:23.498Z,57.20
2023-03-17T15:17:58.779Z,58.30
2023-03-17T15:20:25.722Z,58.30
2023-03-17T15:23:17.051Z,58.20
2023-03-17T15:25:44.666Z,58.60
2023-03-17T15:28:18.887Z,58.30
2023-03-17T15:30:54.659Z,58.70
2023-03-17T15:33:37.457Z,59.10
2023-03-17T15:36:05.251Z,58.80
2023-03-17T15:38:33.043Z,58.30
2023-03-17T15:40:59.644Z,58.90
2023-03-17T15:43:26.216Z,59.60
2023-03-17T15:46:01.273Z,60.40
2023-03-17T15:48:31.323Z,59.80
2023-03-17T15:51:00.049Z,60.00
2023-03-17T15:53:27.449Z,61.30
2023-03-17T15:55:54.480Z,60.60
2023-03-17T15:58:21.659Z,60.00
2023-03-17T16:00:53.321Z,60.60
2023-03-17T16:03:29.547Z,60.40
2023-03-17T16:05:56.276Z,59.80
2023-03-17T16:08:23.135Z,60.60
2023-03-17T16:10:49.836Z,61.20
2023-03-17T16:13:16.428Z,60.90
2023-03-17T16:15:47.144Z,60.90
2023-03-17T16:18:18.115Z,61.40
2023-03-17T16:20:47.668Z,61.70
2023-03-17T16:23:18.450Z,62.20
2023-03-17T16:25:46.044Z,61.60
2023-03-17T16:28:14.715Z,62.10
2023-03-17T16:30:42.018Z,62.20
2023-03-17T16:33:19.478Z,62.60
2023-03-17T16:35:48.602Z,63.00
2023-03-17T16:38:20.790Z,62.70
2023-03-17T16:40:53.090Z,63.50
2023-03-17T16:43:31.569Z,63.10
2023-03-17T16:46:00.347Z,63.50
2023-03-17T16:48:27.095Z,62.80
2023-03-17T16:50:54.253Z,63.90
2023-03-17T16:53:21.619Z,63.90
2023-03-17T16:55:48.624Z,63.50
2023-03-17T16:58:19.795Z,64.30
2023-03-17T17:00:48.520Z,64.80
2023-03-17T17:03:15.643Z,64.20
2023-03-17T17:05:43.668Z,65.90
2023-03-17T17:08:10.735Z,67.40
2023-03-17T17:10:38.941Z,69.10
2023-03-17T17:13:07.871Z,67.40
2023-03-17T17:15:36.056Z,66.80
2023-03-17T17:18:15.461Z,67.00
2023-03-17T17:20:43.624Z,67.70
2023-03-17T17:23:16.710Z,68.70
2023-03-17T17:25:44.332Z,69.20
2023-03-17T17:28:12.694Z,72.20
2023-03-17T17:30:42.861Z,70.00
2023-03-17T17:33:09.434Z,70.90
2023-03-17T17:35:38.095Z,72.00
2023-03-17T17:38:05.230Z,72.60
2023-03-17T17:40:32.331Z,70.30
2023-03-17T17:42:59.257Z,70.70
2023-03-17T17:45:26.154Z,69.60
2023-03-17T17:47:52.755Z,70.20
2023-03-17T17:50:25.552Z,70.00
2023-03-17T17:52:52.418Z,70.80
2023-03-17T17:55:19.730Z,70.00
2023-03-17T17:57:46.470Z,69.70
2023-03-17T18:00:16.654Z,70.10
2023-03-17T18:02:43.580Z,69.60
2023-03-17T18:05:11.238Z,71.30
2023-03-17T18:07:38.725Z,71.20
2023-03-17T18:10:06.434Z,72.40
2023-03-17T18:12:33.186Z,73.60
2023-03-17T18:15:00.218Z,73.30
2023-03-17T18:17:27.208Z,75.30
2023-03-17T18:19:54.464Z,76.80
2023-03-17T18:22:21.865Z,77.30
2023-03-17T18:24:49.327Z,78.00
2023-03-17T18:27:16.768Z,80.30
2023-03-17T18:29:43.850Z,82.10
2023-03-17T18:32:12.448Z,84.60
2023-03-17T18:34:43.710Z,86.40
2023-03-17T18:37:13.280Z,87.20
2023-03-17T18:39:41.555Z,86.50
2023-03-17T18:42:11.010Z,86.20
2023-03-17T18:44:39.825Z,87.50
2023-03-17T18:47:07.439Z,87.70
2023-03-17T18:49:34.547Z,89.90
2023-03-17T18:52:01.223Z,90.30
2023-03-17T18:54:28.465Z,90.20
2023-03-17T18:56:55.731Z,90.60
2023-03-17T18:59:22.381Z,90.90
2023-03-17T19:01:49.125Z,91.10
2023-03-17T19:04:16.066Z,91.50
2023-03-17T19:06:42.782Z,91.90
2023-03-17T19:09:10.679Z,92.00
2023-03-17T19:11:39.211Z,92.20
2023-03-17T19:14:10.026Z,92.30
2023-03-17T19:16:37.056Z,92.90
2023-03-17T19:19:03.993Z,93.00
2023-03-17T19:21:31.115Z,92.90
2023-03-17T19:24:01.327Z,93.40
2023-03-17T19:26:28.498Z,93.60
2023-03-17T19:28:56.693Z,94.00
2023-03-17T19:31:24.769Z,94.20
2023-03-17T19:33:51.860Z,94.40
2023-03-17T19:36:18.557Z,94.70
2023-03-17T19:38:45.691Z,95.00
2023-03-17T19:41:12.710Z,95.50
2023-03-17T19:43:41.743Z,95.70
2023-03-17T19:46:11.194Z,95.90
2023-03-17T19:48:38.667Z,96.10
2023-03-17T19:51:05.578Z,96.60
2023-03-17T19:53:32.247Z,96.80
2023-03-17T19:55:58.989Z,97.30
2023-03-17T19:58:25.841Z,97.80
2023-03-17T20:00:52.830Z,98.20
2023-03-17T20:03:19.420Z,98.60
2023-03-17T20:05:46.478Z,98.70
2023-03-17T20:08:14.466Z,99.00
2023-03-17T20:10:43.168Z,99.50
2023-03-17T20:13:09.767Z,99.70
2023-03-17T20:15:36.979Z,99.90
2023-03-17T20:18:04.311Z,99.90
2023-03-17T20:20:31.343Z,99.90
2023-03-17T20:22:58.052Z,99.90
2023-03-17T20:25:24.665Z,99.90
2023-03-17T20:27:51.654Z,99.90
2023-03-17T20:30:18.383Z,99.90
2023-03-17T20:32:46.447Z,99.90
2023-03-17T20:35:13.654Z,99.90
2023-03-17T20:37:42.580Z,99.90
2023-03-17T20:40:10.646Z,99.90
2023-03-17T20:42:37.508Z,99.90
2023-03-17T20:45:05.709Z,99.90
2023-03-17T20:47:32.366Z,99.90
2023-03-17T20:49:59.477Z,99.90
2023-03-17T20:52:30.263Z,99.90
2023-03-17T20:54:59.288Z,99.90
2023-03-17T20:57:26.286Z,99.90
2023-03-17T20:59:52.885Z,99.90
2023-03-17T21:02:20.736Z,99.90
2023-03-17T21:04:48.865Z,99.90
2023-03-17T21:07:18.632Z,99.90
2023-03-17T21:09:46.711Z,99.90
2023-03-17T21:12:15.695Z,99.90
2023-03-17T21:14:42.553Z,99.90
2023-03-17T21:17:11.585Z,99.90
2023-03-17T21:19:38.321Z,99.90
2023-03-17T21:22:05.523Z,99.90
2023-03-17T21:24:35.821Z,99.90
2023-03-17T21:27:05.008Z,99.90
2023-03-17T21:29:33.354Z,99.90
2023-03-17T21:32:01.864Z,99.90
2023-03-17T21:34:30.653Z,99.90
2023-03-17T21:37:01.598Z,99.90
2023-03-17T21:39:29.699Z,99.90
2023-03-17T21:41:56.949Z,99.90
2023-03-17T21:44:23.940Z,99.90
2023-03-17T21:46:50.832Z,99.90
2023-03-17T21:49:18.765Z,99.90
2023-03-17T21:51:46.689Z,99.90
2023-03-17T21:54:13.776Z,99.90
2023-03-17T21:56:41.397Z,99.90
2023-03-17T21:59:10.915Z,99.90
2023-03-17T22:01:39.033Z,99.90
2023-03-17T22:04:06.162Z,99.90
2023-03-17T22:06:34.088Z,99.90
2023-03-17T22:09:01.009Z,99.90
2023-03-17T22:11:27.731Z,99.90
2023-03-17T22:13:54.498Z,99.90
2023-03-17T22:16:21.605Z,99.90
2023-03-17T22:18:48.540Z,99.90
2023-03-17T22:21:15.461Z,99.90
2023-03-17T22:23:42.457Z,99.90
2023-03-17T22:26:13.194Z,99.90
2023-03-17T22:28:41.741Z,99.90
2023-03-17T22:31:14.155Z,99.90
2023-03-17T22:33:41.543Z,99.90
2023-03-17T22:36:08.676Z,99.90
2023-03-17T22:38:37.806Z,99.90
2023-03-17T22:41:11.569Z,99.90
2023-03-17T22:43:39.948Z,99.90
2023-03-17T22:46:06.597Z,99.90
2023-03-17T22:48:35.805Z,99.90
2023-03-17T22:51:08.144Z,99.90
2023-03-17T22:53:35.664Z,99.90
2023-03-17T22:56:02.690Z,99.90
2023-03-17T22:58:29.474Z,99.90
2023-03-17T23:00:56.376Z,99.90
2023-03-17T23:03:24.907Z,99.90
2023-03-17T23:05:54.867Z,99.90
2023-03-17T23:08:21.570Z,99.90
2023-03-17T23:10:49.923Z,99.90
2023-03-17T23:13:18.813Z,99.90
2023-03-17T23:15:46.726Z,99.90
2023-03-17T23:18:13.989Z,99.90
2023-03-17T23:20:40.944Z,99.90
2023-03-17T23:23:08.351Z,99.90
2023-03-17T23:25:36.533Z,99.90
2023-03-17T23:28:05.137Z,99.90
2023-03-17T23:30:32.411Z,99.90
2023-03-17T23:32:59.316Z,99.90
2023-03-17T23:35:26.078Z,99.90
2023-03-17T23:37:52.728Z,99.90
2023-03-17T23:40:19.382Z,99.90
2023-03-17T23:42:50.169Z,99.90
2023-03-17T23:45:18.118Z,99.90
2023-03-17T23:47:46.619Z,99.90
2023-03-17T23:50:14.394Z,99.90
2023-03-17T23:52:42.353Z,99.90
2023-03-17T23:55:10.343Z,99.90
2023-03-17T23:57:37.828Z,99.90
